createdAt,value
2023-04-21T00:01:00.799Z,47.22
2023-04-21T00:03:27.908Z,47.30
2023-04-21T00:05:54.865Z,47.33
2023-04-21T00:08:21.566Z,47.29
2023-04-21T00:10:48.224Z,47.27
2023-04-21T00:13:14.908Z,47.23
2023-04-21T00:15:41.893Z,47.30
2023-04-21T00:18:08.613Z,47.27
2023-04-21T00:20:35.300Z,47.25
2023-04-21T00:23:01.952Z,47.26
2023-04-21T00:25:28.626Z,47.28
2023-04-21T00:27:55.297Z,47.27
2023-04-21T00:30:21.997Z,47.25
2023-04-21T00:32:48.933Z,47.25
2023-04-21T00:35:15.652Z,47.26
2023-04-21T00:37:42.335Z,47.29
2023-04-21T00:40:09.006Z,47.28
2023-04-21T00:42:35.695Z,47.26
2023-04-21T00:45:02.625Z,47.24
2023-04-21T00:47:29.392Z,47.24
2023-04-21T00:49:56.146Z,47.26
2023-04-21T00:52:22.857Z,47.15
2023-04-21T00:54:49.578Z,47.23
2023-04-21T00:57:16.509Z,47.19
2023-04-21T00:59:43.188Z,47.19
2023-04-21T01:02:10.150Z,47.24
2023-04-21T01:04:36.858Z,47.20
2023-04-21T01:07:03.521Z,47.24
2023-04-21T01:09:30.212Z,47.17
2023-04-21T01:11:56.905Z,47.21
2023-04-21T01:14:23.589Z,47.15
2023-04-21T01:16:50.351Z,47.17
2023-04-21T01:19:17.580Z,47.20
2023-04-21T01:21:44.453Z,47.17
2023-04-21T01:24:11.368Z,47.20
2023-04-21T01:26:38.298Z,47.20
2023-04-21T01:29:04.997Z,47.17
2023-04-21T01:31:31.917Z,47.18
2023-04-21T01:33:58.822Z,47.11
2023-04-21T01:36:25.531Z,47.16
2023-04-21T01:38:52.212Z,47.24
2023-04-21T01:41:18.909Z,47.19
2023-04-21T01:43:45.840Z,47.16
2023-04-21T01:46:12.611Z,47.16
2023-04-21T01:48:39.395Z,47.18
2023-04-21T01:51:06.085Z,47.16
2023-04-21T01:53:32.789Z,47.13
2023-04-21T01:55:59.720Z,47.17
2023-04-21T01:58:26.436Z,47.17
2023-04-21T02:00:53.362Z,47.13
2023-04-21T02:03:20.306Z,47.16
2023-04-21T02:05:47.168Z,47.15
2023-04-21T02:08:13.901Z,47.12
2023-04-21T02:10:40.614Z,47.13
2023-04-21T02:13:07.307Z,47.12
2023-04-21T02:15:34.040Z,47.12
2023-04-21T02:18:00.822Z,47.18
2023-04-21T02:20:27.547Z,47.11
2023-04-21T02:22:54.651Z,47.16
2023-04-21T02:25:21.349Z,47.08
2023-04-21T02:27:48.067Z,47.13
2023-04-21T02:30:14.753Z,47.10
2023-04-21T02:32:41.605Z,47.16
2023-04-21T02:35:08.708Z,47.08
2023-04-21T02:37:35.408Z,47.05
2023-04-21T02:40:02.104Z,47.10
2023-04-21T02:42:28.820Z,47.04
2023-04-21T02:44:55.766Z,47.13
2023-04-21T02:47:22.528Z,47.06
2023-04-21T02:49:49.263Z,47.05
2023-04-21T02:52:15.969Z,47.05
2023-04-21T02:54:42.683Z,47.03
2023-04-21T02:57:09.384Z,47.07
2023-04-21T02:59:36.082Z,47.07
2023-04-21T03:02:02.860Z,47.06
2023-04-21T03:04:29.699Z,47.05
2023-04-21T03:06:56.437Z,47.01
2023-04-21T03:09:23.127Z,47.09
2023-04-21T03:11:49.834Z,47.03
2023-04-21T03:14:16.833Z,47.07
2023-04-21T03:16:43.574Z,47.09
2023-04-21T03:19:10.299Z,47.08
2023-04-21T03:21:37.002Z,47.17
2023-04-21T03:24:03.675Z,47.10
2023-04-21T03:26:30.362Z,47.13
2023-04-21T03:28:57.064Z,47.11
2023-04-21T03:31:23.986Z,47.07
2023-04-21T03:33:50.701Z,47.06
2023-04-21T03:36:17.428Z,47.04
2023-04-21T03:38:44.138Z,47.05
2023-04-21T03:41:11.069Z,47.06
2023-04-21T03:43:37.757Z,47.04
2023-04-21T03:46:04.723Z,47.03
2023-04-21T03:48:31.475Z,47.07
2023-04-21T03:50:58.165Z,47.04
2023-04-21T03:53:24.857Z,47.08
2023-04-21T03:55:51.532Z,46.98
2023-04-21T03:58:18.442Z,46.99
2023-04-21T04:00:45.148Z,47.00
2023-04-21T04:03:12.048Z,47.00
2023-04-21T04:05:39.022Z,47.05
2023-04-21T04:08:05.855Z,46.98
2023-04-21T04:10:32.837Z,46.96
2023-04-21T04:12:59.610Z,46.96
2023-04-21T04:15:26.543Z,47.01
2023-04-21T04:17:53.269Z,46.97
2023-04-21T04:20:20.226Z,46.96
2023-04-21T04:22:46.953Z,46.94
2023-04-21T04:25:13.625Z,46.98
2023-04-21T04:27:40.341Z,46.90
2023-04-21T04:30:07.054Z,46.89
2023-04-21T04:32:33.806Z,46.96
2023-04-21T04:35:00.506Z,46.87
2023-04-21T04:37:27.205Z,46.89
2023-04-21T04:39:54.138Z,46.91
2023-04-21T04:42:20.872Z,46.96
2023-04-21T04:44:47.788Z,46.91
2023-04-21T04:47:14.491Z,46.94
2023-04-21T04:49:41.202Z,46.90
2023-04-21T04:52:07.906Z,46.89
2023-04-21T04:54:34.625Z,46.82
2023-04-21T04:57:01.320Z,46.86
2023-04-21T04:59:29.626Z,46.86
2023-04-21T05:01:56.998Z,46.88
2023-04-21T05:04:24.160Z,46.90
2023-04-21T05:06:51.081Z,46.86
2023-04-21T05:09:17.782Z,46.87
2023-04-21T05:11:44.477Z,46.82
2023-04-21T05:14:11.189Z,46.81
2023-04-21T05:16:37.946Z,46.80
2023-04-21T05:19:04.740Z,46.90
2023-04-21T05:21:31.465Z,46.88
2023-04-21T05:23:58.189Z,46.83
2023-04-21T05:26:25.370Z,46.85
2023-04-21T05:28:52.506Z,46.82
2023-04-21T05:31:19.204Z,46.86
2023-04-21T05:33:45.905Z,46.82
2023-04-21T05:36:12.633Z,46.82
2023-04-21T05:38:39.356Z,46.71
2023-04-21T05:41:06.074Z,46.84
2023-04-21T05:43:33.035Z,46.74
2023-04-21T05:45:59.849Z,46.77
2023-04-21T05:48:26.571Z,46.86
2023-04-21T05:50:55.885Z,46.77
2023-04-21T05:53:22.566Z,46.79
2023-04-21T05:55:49.622Z,46.69
2023-04-21T05:58:16.320Z,46.78
2023-04-21T06:00:43.020Z,46.67
2023-04-21T06:03:09.966Z,46.71
2023-04-21T06:05:37.073Z,46.74
2023-04-21T06:08:05.869Z,46.75
2023-04-21T06:10:32.580Z,46.77
2023-04-21T06:13:00.779Z,46.79
2023-04-21T06:15:28.750Z,46.73
2023-04-21T06:17:55.457Z,46.72
2023-04-21T06:20:22.250Z,46.68
2023-04-21T06:22:49.427Z,46.69
2023-04-21T06:25:16.149Z,46.68
2023-04-21T06:27:42.870Z,46.68
2023-04-21T06:30:09.595Z,46.75
2023-04-21T06:32:36.849Z,46.66
2023-04-21T06:35:03.560Z,46.69
2023-04-21T06:37:30.275Z,46.73
2023-04-21T06:39:57.224Z,46.74
2023-04-21T06:42:23.954Z,46.75
2023-04-21T06:44:51.030Z,46.72
2023-04-21T06:47:18.128Z,46.76
2023-04-21T06:49:45.086Z,46.73
2023-04-21T06:52:11.791Z,46.73
2023-04-21T06:54:38.530Z,46.73
2023-04-21T06:57:05.307Z,46.73
2023-04-21T06:59:32.024Z,46.71
2023-04-21T07:01:59.218Z,46.74
2023-04-21T07:04:25.965Z,46.73
2023-04-21T07:06:52.669Z,46.76
2023-04-21T07:09:19.571Z,46.73
2023-04-21T07:11:46.416Z,46.71
2023-04-21T07:14:13.130Z,46.77
2023-04-21T07:16:40.123Z,46.74
2023-04-21T07:19:06.824Z,46.78
2023-04-21T07:21:33.534Z,46.79
2023-04-21T07:24:00.228Z,46.78
2023-04-21T07:26:26.928Z,46.82
2023-04-21T07:28:53.654Z,46.77
2023-04-21T07:31:20.442Z,46.84
2023-04-21T07:33:47.604Z,46.86
2023-04-21T07:36:14.279Z,46.89
2023-04-21T07:38:40.991Z,46.91
2023-04-21T07:41:07.690Z,46.88
2023-04-21T07:43:34.387Z,46.95
2023-04-21T07:46:01.140Z,46.89
2023-04-21T07:48:27.880Z,46.94
2023-04-21T07:50:54.586Z,46.96
2023-04-21T07:53:21.286Z,46.84
2023-04-21T07:55:47.988Z,46.94
2023-04-21T07:58:15.142Z,46.96
2023-04-21T08:00:41.861Z,46.91
2023-04-21T08:03:08.794Z,46.94
2023-04-21T08:05:38.723Z,46.96
2023-04-21T08:08:08.281Z,46.91
2023-04-21T08:10:34.978Z,46.95
2023-04-21T08:13:02.675Z,46.91
2023-04-21T08:15:30.155Z,46.87
2023-04-21T08:17:56.933Z,46.89
2023-04-21T08:20:23.742Z,46.93
2023-04-21T08:22:50.624Z,46.85
2023-04-21T08:25:18.072Z,46.97
2023-04-21T08:27:44.798Z,46.85
2023-04-21T08:30:11.548Z,46.95
2023-04-21T08:32:38.281Z,46.90
2023-04-21T08:35:05.072Z,46.86
2023-04-21T08:37:32.545Z,46.87
2023-04-21T08:39:59.237Z,46.87
2023-04-21T08:42:25.947Z,46.96
2023-04-21T08:44:52.672Z,46.86
2023-04-21T08:47:19.404Z,46.90
2023-04-21T08:49:46.114Z,46.88
2023-04-21T08:52:14.209Z,46.78
2023-04-21T08:54:40.963Z,46.75
2023-04-21T08:57:15.490Z,46.82
2023-04-21T08:59:42.731Z,46.95
2023-04-21T09:02:14.857Z,46.73
2023-04-21T09:04:41.941Z,46.78
2023-04-21T09:07:08.779Z,46.76
2023-04-21T09:09:35.486Z,46.82
2023-04-21T09:12:02.206Z,46.86
2023-04-21T09:14:28.895Z,46.83
2023-04-21T09:16:55.583Z,46.89
2023-04-21T09:19:22.482Z,46.89
2023-04-21T09:21:49.244Z,46.85
2023-04-21T09:24:15.932Z,46.88
2023-04-21T09:26:42.619Z,46.90
2023-04-21T09:29:09.523Z,46.94
2023-04-21T09:31:36.470Z,46.95
2023-04-21T09:34:03.334Z,47.00
2023-04-21T09:36:30.274Z,47.02
2023-04-21T09:39:20.458Z,47.04
2023-04-21T09:41:44.181Z,46.96
2023-04-21T09:44:10.898Z,46.95
2023-04-21T09:46:37.945Z,47.01
2023-04-21T09:49:04.887Z,47.00
2023-04-21T09:51:49.238Z,47.03
2023-04-21T09:54:28.986Z,47.02
2023-04-21T09:56:57.093Z,47.06
2023-04-21T09:59:23.879Z,47.05
2023-04-21T10:01:50.651Z,47.03
2023-04-21T10:04:17.727Z,47.06
2023-04-21T10:06:44.595Z,47.01
2023-04-21T10:09:11.276Z,47.05
2023-04-21T10:11:37.937Z,47.07
2023-04-21T10:14:04.830Z,47.02
2023-04-21T10:16:31.548Z,47.00
2023-04-21T10:18:58.303Z,47.05
2023-04-21T10:21:25.001Z,47.05
2023-04-21T10:23:51.668Z,47.10
2023-04-21T10:26:18.329Z,47.11
2023-04-21T10:28:45.011Z,47.10
2023-04-21T10:31:11.722Z,47.07
2023-04-21T10:33:38.452Z,47.16
2023-04-21T10:36:05.157Z,47.16
2023-04-21T10:38:32.135Z,47.20
2023-04-21T10:40:58.833Z,47.17
2023-04-21T10:43:25.516Z,47.11
2023-04-21T10:45:52.308Z,47.16
2023-04-21T10:48:19.001Z,47.12
2023-04-21T10:50:45.684Z,47.16
2023-04-21T10:53:12.352Z,47.15
2023-04-21T10:55:39.045Z,47.18
2023-04-21T10:58:05.734Z,47.12
2023-04-21T11:00:32.408Z,47.18
2023-04-21T11:02:59.539Z,47.24
2023-04-21T11:05:26.384Z,47.18
2023-04-21T11:07:53.065Z,47.18
2023-04-21T11:10:19.733Z,47.23
2023-04-21T11:12:46.387Z,47.31
2023-04-21T11:15:13.289Z,47.19
2023-04-21T11:17:40.213Z,47.24
2023-04-21T11:20:07.058Z,47.21
2023-04-21T11:22:33.819Z,47.31
2023-04-21T11:25:00.612Z,47.25
2023-04-21T11:27:27.528Z,47.27
2023-04-21T11:29:54.205Z,47.22
2023-04-21T11:32:20.876Z,47.18
2023-04-21T11:34:47.548Z,47.18
2023-04-21T11:37:14.227Z,47.22
2023-04-21T11:39:40.892Z,47.24
2023-04-21T11:42:07.576Z,47.24
2023-04-21T11:44:34.482Z,47.22
2023-04-21T11:47:01.158Z,47.23
2023-04-21T11:49:27.838Z,47.21
2023-04-21T11:51:54.526Z,47.23
2023-04-21T11:54:21.204Z,47.18
2023-04-21T11:56:47.888Z,47.27
2023-04-21T11:59:14.565Z,47.23
2023-04-21T12:01:41.254Z,47.17
2023-04-21T12:04:08.072Z,47.22
2023-04-21T12:06:34.887Z,47.24
2023-04-21T12:09:01.572Z,47.27
2023-04-21T12:11:28.260Z,47.21
2023-04-21T12:13:54.961Z,47.30
2023-04-21T12:16:21.635Z,47.28
2023-04-21T12:18:48.296Z,47.30
2023-04-21T12:21:15.027Z,47.39
2023-04-21T12:23:41.702Z,47.39
2023-04-21T12:26:08.602Z,47.41
2023-04-21T12:28:35.274Z,47.45
2023-04-21T12:31:01.957Z,47.55
2023-04-21T12:33:28.675Z,47.44
2023-04-21T12:35:55.404Z,47.53
2023-04-21T12:38:22.064Z,47.58
2023-04-21T12:40:48.744Z,47.62
2023-04-21T12:43:15.636Z,47.61
2023-04-21T12:45:42.321Z,47.60
2023-04-21T12:48:09.077Z,47.65
2023-04-21T12:50:35.827Z,47.58
2023-04-21T12:53:02.513Z,47.56
2023-04-21T12:55:29.195Z,47.64
2023-04-21T12:57:56.064Z,47.66
2023-04-21T13:00:22.796Z,47.61
2023-04-21T13:02:49.564Z,47.67
2023-04-21T13:05:16.314Z,47.63
2023-04-21T13:07:42.972Z,47.66
2023-04-21T13:10:09.652Z,47.66
2023-04-21T13:12:36.350Z,47.67
2023-04-21T13:15:03.055Z,47.66
2023-04-21T13:17:29.969Z,47.66
2023-04-21T13:19:56.664Z,47.64
2023-04-21T13:22:23.363Z,47.67
2023-04-21T13:24:50.074Z,47.65
2023-04-21T13:27:16.765Z,47.69
2023-04-21T13:29:43.458Z,47.68
2023-04-21T13:32:10.149Z,47.59
2023-04-21T13:34:36.844Z,47.63
2023-04-21T13:37:03.507Z,47.69
2023-04-21T13:39:30.486Z,47.65
2023-04-21T13:41:57.402Z,47.64
2023-04-21T13:44:24.076Z,47.68
2023-04-21T13:46:50.872Z,47.61
2023-04-21T13:49:17.821Z,47.66
2023-04-21T13:51:44.515Z,47.76
2023-04-21T13:54:11.212Z,47.74
2023-04-21T13:56:38.350Z,47.71
2023-04-21T13:59:05.017Z,47.74
2023-04-21T14:01:31.730Z,47.70
2023-04-21T14:03:58.773Z,47.70
2023-04-21T14:06:25.922Z,47.71
2023-04-21T14:08:52.640Z,47.80
2023-04-21T14:11:19.336Z,47.67
2023-04-21T14:14:00.920Z,47.69
2023-04-21T14:16:32.733Z,47.72
2023-04-21T14:18:59.422Z,47.76
2023-04-21T14:21:26.162Z,47.76
2023-04-21T14:23:52.869Z,47.76
2023-04-21T14:26:19.550Z,47.71
2023-04-21T14:28:46.429Z,47.70
2023-04-21T14:31:13.163Z,47.73
2023-04-21T14:33:39.887Z,47.79
2023-04-21T14:36:06.765Z,47.69
2023-04-21T14:38:33.462Z,47.60
2023-04-21T14:41:00.221Z,47.48
2023-04-21T14:43:26.895Z,47.49
2023-04-21T14:45:53.874Z,47.61
2023-04-21T14:48:20.590Z,47.68
2023-04-21T14:50:47.318Z,47.84
2023-04-21T14:53:14.019Z,47.85
2023-04-21T14:55:40.729Z,47.81
2023-04-21T14:58:07.388Z,47.79
2023-04-21T15:00:34.091Z,47.74
2023-04-21T15:03:00.875Z,47.78
2023-04-21T15:05:27.657Z,47.82
2023-04-21T15:07:54.375Z,47.82
2023-04-21T15:10:21.119Z,47.84
2023-04-21T15:12:47.811Z,47.82
2023-04-21T15:15:14.521Z,47.84
2023-04-21T15:17:41.292Z,47.86
2023-04-21T15:20:08.015Z,47.84
2023-04-21T15:22:34.698Z,47.86
2023-04-21T15:25:01.381Z,47.84
2023-04-21T15:27:28.041Z,47.89
2023-04-21T15:29:54.962Z,47.81
2023-04-21T15:32:21.691Z,47.79
2023-04-21T15:34:48.366Z,47.84
2023-04-21T15:37:15.037Z,47.88
2023-04-21T15:39:41.752Z,47.90
2023-04-21T15:42:08.448Z,47.89
2023-04-21T15:44:35.450Z,47.89
2023-04-21T15:47:02.413Z,47.88
2023-04-21T15:49:29.351Z,47.92
2023-04-21T15:51:56.007Z,47.93
2023-04-21T15:54:22.910Z,47.94
2023-04-21T15:56:49.691Z,47.93
2023-04-21T15:59:16.669Z,47.99
2023-04-21T16:01:43.444Z,47.92
2023-04-21T16:04:10.361Z,47.91
2023-04-21T16:06:37.325Z,47.94
2023-04-21T16:09:04.059Z,47.98
2023-04-21T16:11:30.964Z,47.98
2023-04-21T16:13:57.691Z,47.97
2023-04-21T16:16:24.638Z,47.96
2023-04-21T16:18:51.494Z,48.00
2023-04-21T16:21:18.312Z,48.00
2023-04-21T16:23:45.110Z,47.98
2023-04-21T16:26:11.889Z,47.99
2023-04-21T16:28:38.596Z,48.00
2023-04-21T16:31:05.328Z,47.99
2023-04-21T16:33:32.335Z,48.01
2023-04-21T16:35:59.020Z,47.99
2023-04-21T16:38:25.889Z,47.99
2023-04-21T16:40:52.656Z,48.03
2023-04-21T16:43:19.340Z,47.97
2023-04-21T16:45:46.166Z,48.03
2023-04-21T16:48:13.015Z,48.04
2023-04-21T16:50:40.026Z,48.11
2023-04-21T16:53:06.821Z,48.10
2023-04-21T16:55:33.490Z,48.08
2023-04-21T16:58:00.182Z,48.08
2023-04-21T17:00:26.908Z,48.13
2023-04-21T17:02:53.663Z,48.11
2023-04-21T17:05:20.468Z,48.15
2023-04-21T17:07:47.374Z,48.13
2023-04-21T17:10:14.023Z,48.17
2023-04-21T17:12:40.711Z,48.20
2023-04-21T17:15:07.454Z,48.20
2023-04-21T17:17:34.220Z,48.25
2023-04-21T17:20:00.936Z,48.27
2023-04-21T17:22:27.648Z,48.25
2023-04-21T17:24:54.612Z,48.22
2023-04-21T17:27:21.753Z,48.28
2023-04-21T17:29:48.516Z,48.27
2023-04-21T17:32:15.344Z,48.28
2023-04-21T17:34:42.104Z,48.31
2023-04-21T17:37:09.780Z,48.32
2023-04-21T17:39:36.435Z,48.35
2023-04-21T17:42:03.368Z,48.36
2023-04-21T17:44:30.074Z,48.35
2023-04-21T17:46:56.757Z,48.34
2023-04-21T17:49:23.442Z,48.33
2023-04-21T17:51:50.116Z,48.35
2023-04-21T17:54:17.043Z,48.36
2023-04-21T17:56:43.714Z,48.41
2023-04-21T17:59:10.368Z,48.41
2023-04-21T18:01:37.099Z,48.42
2023-04-21T18:04:04.289Z,48.38
2023-04-21T18:06:31.382Z,48.42
2023-04-21T18:08:58.102Z,48.42
2023-04-21T18:11:24.756Z,48.46
2023-04-21T18:13:51.438Z,48.47
2023-04-21T18:16:18.635Z,48.42
2023-04-21T18:18:45.583Z,48.46
2023-04-21T18:21:12.506Z,48.51
2023-04-21T18:23:39.198Z,48.48
2023-04-21T18:26:05.859Z,48.50
2023-04-21T18:28:32.550Z,48.52
2023-04-21T18:30:59.257Z,48.54
2023-04-21T18:33:26.199Z,48.47
2023-04-21T18:35:52.882Z,48.49
2023-04-21T18:38:19.557Z,48.54
2023-04-21T18:40:46.224Z,48.54
2023-04-21T18:43:12.899Z,48.52
2023-04-21T18:45:39.793Z,48.54
2023-04-21T18:48:06.545Z,48.59
2023-04-21T18:50:33.860Z,48.57
2023-04-21T18:53:01.902Z,48.56
2023-04-21T18:55:28.771Z,48.59
2023-04-21T18:57:55.451Z,48.58
2023-04-21T19:00:22.130Z,48.55
2023-04-21T19:02:49.050Z,48.61
2023-04-21T19:05:15.855Z,48.56
2023-04-21T19:07:42.512Z,48.61
2023-04-21T19:10:09.184Z,48.52
2023-04-21T19:12:35.885Z,48.39
2023-04-21T19:15:02.558Z,48.60
2023-04-21T19:17:29.264Z,48.45
2023-04-21T19:19:56.039Z,48.46
2023-04-21T19:22:22.936Z,48.48
2023-04-21T19:24:49.586Z,48.48
2023-04-21T19:27:16.253Z,48.49
2023-04-21T19:29:42.908Z,48.49
2023-04-21T19:32:09.985Z,48.50
2023-04-21T19:34:36.975Z,48.50
2023-04-21T19:37:03.907Z,48.64
2023-04-21T19:39:31.145Z,48.43
2023-04-21T19:41:57.868Z,48.53
2023-04-21T19:44:24.590Z,48.45
2023-04-21T19:46:51.269Z,48.49
2023-04-21T19:49:17.938Z,48.40
2023-04-21T19:51:44.615Z,48.40
2023-04-21T19:54:12.606Z,48.49
2023-04-21T19:56:39.322Z,48.45
2023-04-21T19:59:06.008Z,48.48
2023-04-21T20:01:32.930Z,48.48
2023-04-21T20:03:59.846Z,48.51
2023-04-21T20:06:26.650Z,48.48
2023-04-21T20:08:53.343Z,48.50
2023-04-21T20:11:20.284Z,48.46
2023-04-21T20:13:46.956Z,48.48
2023-04-21T20:16:13.884Z,48.48
2023-04-21T20:18:40.646Z,48.50
2023-04-21T20:21:07.295Z,48.53
2023-04-21T20:23:34.182Z,48.46
2023-04-21T20:26:00.875Z,48.53
2023-04-21T20:28:27.603Z,48.47
2023-04-21T20:30:54.373Z,48.60
2023-04-21T20:33:21.037Z,48.60
2023-04-21T20:35:47.718Z,48.47
2023-04-21T20:38:14.613Z,48.37
2023-04-21T20:40:41.292Z,48.44
2023-04-21T20:43:08.209Z,48.50
2023-04-21T20:45:35.093Z,48.43
2023-04-21T20:48:01.761Z,48.46
2023-04-21T20:50:28.626Z,48.42
2023-04-21T20:52:55.351Z,48.41
2023-04-21T20:55:22.043Z,48.53
2023-04-21T20:57:49.108Z,48.48
2023-04-21T21:00:15.794Z,48.47
2023-04-21T21:02:42.841Z,48.48
2023-04-21T21:05:09.633Z,48.44
2023-04-21T21:07:36.307Z,48.55
2023-04-21T21:10:02.967Z,48.46
2023-04-21T21:12:29.656Z,48.54
2023-04-21T21:14:56.336Z,48.46
2023-04-21T21:17:23.083Z,48.64
2023-04-21T21:19:49.998Z,48.62
2023-04-21T21:22:16.704Z,48.62
2023-04-21T21:24:43.405Z,48.56
2023-04-21T21:27:10.307Z,48.62
2023-04-21T21:29:37.421Z,48.48
2023-04-21T21:32:04.356Z,48.65
2023-04-21T21:34:31.060Z,48.51
2023-04-21T21:36:57.727Z,48.60
2023-04-21T21:39:24.410Z,48.49
2023-04-21T21:41:51.079Z,48.58
2023-04-21T21:44:17.755Z,48.58
2023-04-21T21:46:44.475Z,48.46
2023-04-21T21:49:11.202Z,48.54
2023-04-21T21:51:37.865Z,48.48
2023-04-21T21:54:04.512Z,48.53
2023-04-21T21:56:31.197Z,48.65
2023-04-21T21:58:57.912Z,48.69
2023-04-21T22:01:24.642Z,48.60
2023-04-21T22:03:51.420Z,48.44
2023-04-21T22:06:18.179Z,48.67
2023-04-21T22:08:44.835Z,48.44
2023-04-21T22:11:11.526Z,48.43
2023-04-21T22:13:38.204Z,48.53
2023-04-21T22:16:04.923Z,48.44
2023-04-21T22:18:31.614Z,48.55
2023-04-21T22:20:58.293Z,48.64
2023-04-21T22:23:24.981Z,48.62
2023-04-21T22:25:51.672Z,48.61
2023-04-21T22:28:18.356Z,48.61
2023-04-21T22:30:45.011Z,48.63
2023-04-21T22:33:11.681Z,48.62
2023-04-21T22:35:38.368Z,48.57
2023-04-21T22:38:05.051Z,48.65
2023-04-21T22:40:31.736Z,48.58
2023-04-21T22:42:58.438Z,48.67
2023-04-21T22:45:25.145Z,48.64
2023-04-21T22:47:51.905Z,48.62
2023-04-21T22:50:18.570Z,48.71
2023-04-21T22:52:45.434Z,48.64
2023-04-21T22:55:12.125Z,48.63
2023-04-21T22:57:38.996Z,48.71
2023-04-21T23:00:06.161Z,48.55
2023-04-21T23:02:33.111Z,48.49
2023-04-21T23:04:59.912Z,48.69
2023-04-21T23:07:26.612Z,48.65
2023-04-21T23:09:53.290Z,48.68
2023-04-21T23:12:19.943Z,48.69
2023-04-21T23:14:46.626Z,48.78
2023-04-21T23:17:13.551Z,48.63
2023-04-21T23:19:40.511Z,48.69
2023-04-21T23:22:07.438Z,48.62
2023-04-21T23:24:34.144Z,48.68
2023-04-21T23:27:00.854Z,48.82
2023-04-21T23:29:27.517Z,48.63
2023-04-21T23:31:54.255Z,48.77
2023-04-21T23:34:20.937Z,48.74
2023-04-21T23:36:47.618Z,48.70
2023-04-21T23:39:14.887Z,48.77
2023-04-21T23:41:41.549Z,48.68
2023-04-21T23:44:08.236Z,48.75
2023-04-21T23:46:34.939Z,48.61
2023-04-21T23:49:01.660Z,48.75
2023-04-21T23:51:28.342Z,48.83
2023-04-21T23:53:54.995Z,48.81
2023-04-21T23:56:21.684Z,48.81
2023-04-21T23:58:48.364Z,48.64
